createdAt,value
2022-09-06T00:03:32.483Z,2.80
2022-09-06T00:09:56.916Z,1.80
2022-09-06T00:16:21.411Z,1.70
2022-09-06T00:22:45.730Z,2.10
2022-09-06T00:29:10.020Z,2.50
2022-09-06T00:35:34.281Z,2.10
2022-09-06T00:41:58.537Z,2.10
2022-09-06T00:48:22.865Z,2.40
2022-09-06T00:54:47.192Z,2.20
2022-09-06T01:01:11.805Z,2.60
2022-09-06T01:07:44.940Z,2.90
2022-09-06T01:14:18.030Z,2.00
2022-09-06T01:20:45.348Z,1.90
2022-09-06T01:27:24.644Z,2.20
2022-09-06T01:33:51.561Z,2.60
2022-09-06T01:40:16.005Z,2.40
2022-09-06T01:46:58.514Z,2.00
2022-09-06T01:53:28.466Z,2.10
2022-09-06T01:59:52.799Z,2.20
2022-09-06T02:06:15.245Z,1.90
2022-09-06T02:12:39.477Z,1.90
2022-09-06T02:19:18.857Z,1.70
2022-09-06T02:25:43.231Z,1.50
2022-09-06T02:32:07.549Z,1.70
2022-09-06T02:38:31.944Z,1.20
2022-09-06T02:44:56.373Z,1.90
2022-09-06T02:51:20.602Z,1.80
2022-09-06T02:57:44.956Z,1.60
2022-09-06T03:04:09.267Z,2.00
2022-09-06T03:10:33.586Z,2.30
2022-09-06T03:16:57.966Z,1.70
2022-09-06T03:23:22.225Z,1.50
2022-09-06T03:29:46.666Z,1.80
2022-09-06T03:36:04.858Z,2.30
2022-09-06T03:42:29.217Z,2.10
2022-09-06T03:48:53.522Z,0.90
2022-09-06T03:55:17.810Z,1.10
2022-09-06T04:01:42.064Z,1.60
2022-09-06T04:08:06.328Z,1.50
2022-09-06T04:14:30.510Z,2.00
2022-09-06T04:20:54.865Z,1.80
2022-09-06T04:27:19.078Z,1.20
2022-09-06T04:33:43.385Z,2.50
2022-09-06T04:40:07.717Z,1.90
2022-09-06T04:46:32.090Z,1.90
2022-09-06T04:52:56.417Z,1.60
2022-09-06T04:59:20.716Z,2.10
2022-09-06T05:05:45.037Z,1.90
2022-09-06T05:12:09.349Z,1.70
2022-09-06T05:18:33.653Z,1.80
2022-09-06T05:24:57.908Z,1.80
2022-09-06T05:31:22.392Z,1.20
2022-09-06T05:37:46.703Z,1.10
2022-09-06T05:44:11.018Z,2.80
2022-09-06T05:50:35.310Z,4.10
2022-09-06T05:56:59.664Z,2.50
2022-09-06T06:03:23.935Z,1.80
2022-09-06T06:09:47.881Z,1.80
2022-09-06T06:16:12.427Z,1.50
2022-09-06T06:22:37.064Z,1.80
2022-09-06T06:29:01.290Z,1.90
2022-09-06T06:35:25.517Z,1.10
2022-09-06T06:41:49.862Z,1.60
2022-09-06T06:48:23.216Z,1.60
2022-09-06T06:54:46.732Z,2.20
2022-09-06T07:01:11.317Z,2.30
2022-09-06T07:07:37.987Z,2.20
2022-09-06T07:14:05.184Z,1.50
2022-09-06T07:20:29.794Z,1.80
2022-09-06T07:33:41.084Z,2.40
2022-09-06T07:39:58.267Z,0.70
2022-09-06T07:46:22.675Z,2.70
2022-09-06T07:59:31.356Z,2.20
2022-09-06T08:06:11.148Z,2.90
2022-09-06T08:12:35.729Z,1.90
2022-09-06T08:19:00.028Z,1.50
2022-09-06T08:25:24.305Z,1.20
2022-09-06T08:31:48.676Z,1.40
2022-09-06T08:38:13.032Z,0.90
2022-09-06T08:44:58.664Z,0.90
2022-09-06T08:51:23.397Z,1.30
2022-09-06T08:58:02.820Z,1.30
2022-09-06T09:04:33.305Z,0.70
2022-09-06T09:10:57.628Z,1.80
2022-09-06T09:17:21.955Z,0.90
2022-09-06T09:23:46.342Z,1.40
2022-09-06T09:43:39.284Z,0.40
2022-09-06T09:50:13.295Z,1.00
2022-09-06T09:56:37.670Z,0.70
2022-09-06T10:03:10.849Z,0.80
2022-09-06T10:09:35.232Z,1.00
2022-09-06T10:16:17.696Z,0.60
2022-09-06T10:22:41.971Z,1.60
2022-09-06T10:29:17.833Z,0.80
2022-09-06T10:35:47.589Z,0.70
2022-09-06T10:42:11.851Z,0.80
2022-09-06T10:48:26.094Z,0.60
2022-09-06T10:55:02.358Z,0.60
2022-09-06T11:01:26.896Z,0.40
2022-09-06T11:14:35.644Z,0.50
2022-09-06T11:21:06.062Z,1.00
2022-09-06T11:27:30.326Z,0.80
2022-09-06T11:34:01.061Z,0.60
2022-09-06T11:40:31.919Z,0.40
2022-09-06T11:47:14.954Z,0.50
2022-09-06T11:53:57.606Z,0.70
2022-09-06T12:00:27.605Z,0.50
2022-09-06T12:06:54.671Z,0.80
2022-09-06T12:13:27.781Z,0.40
2022-09-06T12:19:52.009Z,0.50
2022-09-06T12:26:19.481Z,0.70
2022-09-06T12:32:43.867Z,0.70
2022-09-06T12:39:13.225Z,0.40
2022-09-06T12:45:37.448Z,0.40
2022-09-06T12:52:04.594Z,0.60
2022-09-06T12:58:28.969Z,0.70
2022-09-06T13:04:59.374Z,0.70
2022-09-06T13:11:23.912Z,0.80
2022-09-06T13:17:51.058Z,0.60
2022-09-06T13:24:20.959Z,0.40
2022-09-06T13:30:49.970Z,1.10
2022-09-06T13:37:14.677Z,0.30
2022-09-06T13:43:41.554Z,0.40
2022-09-06T13:50:05.810Z,0.40
2022-09-06T13:56:30.125Z,1.50
2022-09-06T14:02:54.495Z,0.30
2022-09-06T14:09:18.730Z,0.40
2022-09-06T14:15:43.140Z,0.20
2022-09-06T14:22:07.405Z,0.30
2022-09-06T14:28:31.707Z,0.30
2022-09-06T14:34:56.042Z,1.00
2022-09-06T14:41:20.434Z,0.30
2022-09-06T14:47:44.655Z,0.50
2022-09-06T14:54:08.943Z,0.50
2022-09-06T15:00:33.218Z,0.60
2022-09-06T15:06:57.445Z,0.60
2022-09-06T15:13:21.770Z,0.80
2022-09-06T15:19:46.392Z,0.10
2022-09-06T15:26:10.893Z,0.30
2022-09-06T15:32:35.300Z,0.50
2022-09-06T15:38:59.610Z,0.40
2022-09-06T15:45:23.989Z,0.50
2022-09-06T15:51:48.258Z,0.40
2022-09-06T15:58:12.558Z,0.70
2022-09-06T16:04:36.869Z,0.40
2022-09-06T16:11:01.113Z,0.20
2022-09-06T16:17:25.300Z,0.60
2022-09-06T16:23:49.701Z,0.60
2022-09-06T16:30:14.003Z,0.40
2022-09-06T16:36:42.100Z,0.30
2022-09-06T16:43:06.397Z,0.40
2022-09-06T16:49:33.385Z,0.30
2022-09-06T16:55:57.701Z,0.20
2022-09-06T17:02:22.179Z,0.40
2022-09-06T17:08:46.637Z,0.50
2022-09-06T17:15:10.965Z,0.30
2022-09-06T17:21:35.242Z,0.60
2022-09-06T17:27:59.592Z,0.40
2022-09-06T17:34:23.878Z,0.40
2022-09-06T17:40:48.455Z,0.90
2022-09-06T17:47:13.896Z,1.10
2022-09-06T17:53:38.653Z,1.20
2022-09-06T18:00:02.984Z,2.20
2022-09-06T18:06:27.279Z,0.70
2022-09-06T18:12:51.880Z,5.30
2022-09-06T18:19:10.056Z,6.60
2022-09-06T18:25:34.425Z,5.40
2022-09-06T18:31:58.840Z,3.50
2022-09-06T18:38:23.257Z,1.70
2022-09-06T18:44:47.602Z,2.20
2022-09-06T18:51:05.578Z,1.40
2022-09-06T18:57:29.987Z,1.90
2022-09-06T19:03:44.148Z,3.30
2022-09-06T19:10:07.126Z,2.30
2022-09-06T19:16:24.452Z,1.40
2022-09-06T19:22:48.790Z,1.50
2022-09-06T19:29:13.125Z,2.40
2022-09-06T19:35:43.731Z,2.30
2022-09-06T19:42:20.151Z,3.10
2022-09-06T19:48:44.471Z,2.30
2022-09-06T19:55:08.826Z,2.20
2022-09-06T20:01:33.186Z,2.30
2022-09-06T20:08:05.979Z,2.90
2022-09-06T20:14:30.181Z,2.90
2022-09-06T20:20:54.587Z,2.30
2022-09-06T20:27:18.322Z,2.80
2022-09-06T20:33:48.481Z,3.50
2022-09-06T20:40:13.942Z,2.30
2022-09-06T20:46:38.422Z,2.50
2022-09-06T20:53:02.857Z,3.70
2022-09-06T20:59:29.844Z,2.60
2022-09-06T21:05:54.148Z,3.10
2022-09-06T21:12:18.668Z,2.50
2022-09-06T21:18:42.965Z,3.80
2022-09-06T21:25:08.028Z,3.00
2022-09-06T21:31:45.073Z,2.80
2022-09-06T21:38:10.129Z,3.00
2022-09-06T21:44:34.447Z,2.70
2022-09-06T21:50:58.662Z,3.20
2022-09-06T21:57:22.988Z,2.90
2022-09-06T22:03:47.391Z,3.40
2022-09-06T22:10:11.808Z,3.10
2022-09-06T22:16:38.961Z,2.50
2022-09-06T22:23:03.423Z,3.50
2022-09-06T22:29:27.643Z,2.90
2022-09-06T22:35:51.998Z,3.80
2022-09-06T22:42:16.465Z,4.40
2022-09-06T22:48:40.876Z,2.60
2022-09-06T22:55:05.221Z,4.50
2022-09-06T23:01:29.422Z,3.20
2022-09-06T23:07:53.641Z,3.10
2022-09-06T23:14:17.889Z,3.80
2022-09-06T23:20:42.289Z,2.80
2022-09-06T23:27:06.519Z,3.60
2022-09-06T23:33:30.839Z,3.20
2022-09-06T23:39:55.268Z,3.60
2022-09-06T23:46:19.623Z,4.00
2022-09-06T23:52:43.970Z,3.90
2022-09-06T23:59:08.254Z,4.40
